sensor_id;sensor_type;location;lat;lon;timestamp;P1;durP1;ratioP1;P2;durP2;ratioP2
75062;SDS011;63981;51.052;13.754;2023-02-26T00:01:20;2.25;;;1.20;;
75062;SDS011;63981;51.052;13.754;2023-02-26T00:03:48;2.83;;;1.15;;
75062;SDS011;63981;51.052;13.754;2023-02-26T00:06:15;1.88;;;1.15;;
75062;SDS011;63981;51.052;13.754;2023-02-26T00:08:41;2.10;;;1.08;;
75062;SDS011;63981;51.052;13.754;2023-02-26T00:11:07;1.50;;;1.17;;
75062;SDS011;63981;51.052;13.754;2023-02-26T00:13:36;1.17;;;0.90;;
75062;SDS011;63981;51.052;13.754;2023-02-26T00:16:04;1.33;;;1.08;;
75062;SDS011;63981;51.052;13.754;2023-02-26T00:18:39;1.75;;;1.08;;
75062;SDS011;63981;51.052;13.754;2023-02-26T00:21:05;1.40;;;0.80;;
75062;SDS011;63981;51.052;13.754;2023-02-26T00:23:31;2.92;;;1.35;;
75062;SDS011;63981;51.052;13.754;2023-02-26T00:25:57;1.42;;;1.10;;
75062;SDS011;63981;51.052;13.754;2023-02-26T00:28:23;2.33;;;1.00;;
75062;SDS011;63981;51.052;13.754;2023-02-26T00:30:50;1.67;;;0.90;;
75062;SDS011;63981;51.052;13.754;2023-02-26T00:33:17;1.48;;;0.98;;
75062;SDS011;63981;51.052;13.754;2023-02-26T00:35:43;2.08;;;1.10;;
75062;SDS011;63981;51.052;13.754;2023-02-26T00:38:09;1.48;;;0.95;;
75062;SDS011;63981;51.052;13.754;2023-02-26T00:40:46;1.60;;;1.05;;
75062;SDS011;63981;51.052;13.754;2023-02-26T00:43:17;1.27;;;1.00;;
75062;SDS011;63981;51.052;13.754;2023-02-26T00:46:02;1.98;;;1.15;;
75062;SDS011;63981;51.052;13.754;2023-02-26T00:51:22;1.20;;;0.88;;
75062;SDS011;63981;51.052;13.754;2023-02-26T00:54:17;3.65;;;1.05;;
75062;SDS011;63981;51.052;13.754;2023-02-26T00:56:59;1.10;;;0.80;;
75062;SDS011;63981;51.052;13.754;2023-02-26T00:59:25;2.03;;;1.00;;
75062;SDS011;63981;51.052;13.754;2023-02-26T01:01:51;1.15;;;1.05;;
75062;SDS011;63981;51.052;13.754;2023-02-26T01:04:18;0.95;;;0.85;;
75062;SDS011;63981;51.052;13.754;2023-02-26T01:06:47;1.20;;;1.00;;
75062;SDS011;63981;51.052;13.754;2023-02-26T01:09:23;3.00;;;1.20;;
75062;SDS011;63981;51.052;13.754;2023-02-26T01:11:54;1.40;;;0.73;;
75062;SDS011;63981;51.052;13.754;2023-02-26T01:14:22;1.58;;;1.00;;
75062;SDS011;63981;51.052;13.754;2023-02-26T01:17:01;3.25;;;1.20;;
75062;SDS011;63981;51.052;13.754;2023-02-26T01:19:43;1.48;;;0.95;;
75062;SDS011;63981;51.052;13.754;2023-02-26T01:22:15;1.33;;;0.88;;
75062;SDS011;63981;51.052;13.754;2023-02-26T01:24:47;1.52;;;1.08;;
75062;SDS011;63981;51.052;13.754;2023-02-26T01:27:18;1.10;;;0.80;;
75062;SDS011;63981;51.052;13.754;2023-02-26T01:29:43;1.50;;;0.93;;
75062;SDS011;63981;51.052;13.754;2023-02-26T01:40:17;1.10;;;1.00;;
75062;SDS011;63981;51.052;13.754;2023-02-26T01:42:55;0.93;;;0.80;;
75062;SDS011;63981;51.052;13.754;2023-02-26T01:45:28;1.25;;;1.08;;
75062;SDS011;63981;51.052;13.754;2023-02-26T01:48:03;2.63;;;1.02;;
75062;SDS011;63981;51.052;13.754;2023-02-26T01:50:33;1.88;;;1.20;;
75062;SDS011;63981;51.052;13.754;2023-02-26T01:53:14;1.30;;;1.08;;
75062;SDS011;63981;51.052;13.754;2023-02-26T01:55:44;2.78;;;1.83;;
75062;SDS011;63981;51.052;13.754;2023-02-26T01:58:14;2.33;;;1.40;;
75062;SDS011;63981;51.052;13.754;2023-02-26T02:00:41;2.95;;;1.48;;
75062;SDS011;63981;51.052;13.754;2023-02-26T02:03:07;2.53;;;1.20;;
75062;SDS011;63981;51.052;13.754;2023-02-26T02:05:38;3.67;;;1.60;;
75062;SDS011;63981;51.052;13.754;2023-02-26T02:08:08;2.17;;;1.20;;
75062;SDS011;63981;51.052;13.754;2023-02-26T02:10:33;1.35;;;1.20;;
75062;SDS011;63981;51.052;13.754;2023-02-26T02:15:41;1.70;;;1.30;;
75062;SDS011;63981;51.052;13.754;2023-02-26T02:18:19;1.77;;;1.40;;
75062;SDS011;63981;51.052;13.754;2023-02-26T02:23:57;2.40;;;1.98;;
75062;SDS011;63981;51.052;13.754;2023-02-26T02:32:35;2.00;;;1.63;;
75062;SDS011;63981;51.052;13.754;2023-02-26T02:35:21;2.97;;;1.70;;
75062;SDS011;63981;51.052;13.754;2023-02-26T02:40:38;2.75;;;1.88;;
75062;SDS011;63981;51.052;13.754;2023-02-26T02:45:52;1.90;;;1.70;;
75062;SDS011;63981;51.052;13.754;2023-02-26T02:48:23;2.80;;;1.90;;
75062;SDS011;63981;51.052;13.754;2023-02-26T02:50:57;2.55;;;1.75;;
75062;SDS011;63981;51.052;13.754;2023-02-26T02:53:32;2.08;;;1.67;;
75062;SDS011;63981;51.052;13.754;2023-02-26T02:56:03;2.95;;;2.35;;
75062;SDS011;63981;51.052;13.754;2023-02-26T02:58:36;3.10;;;2.10;;
75062;SDS011;63981;51.052;13.754;2023-02-26T03:01:14;2.28;;;1.98;;
75062;SDS011;63981;51.052;13.754;2023-02-26T03:03:43;3.17;;;2.13;;
75062;SDS011;63981;51.052;13.754;2023-02-26T03:06:16;3.08;;;2.08;;
75062;SDS011;63981;51.052;13.754;2023-02-26T03:08:42;2.45;;;1.83;;
75062;SDS011;63981;51.052;13.754;2023-02-26T03:11:10;2.20;;;1.83;;
75062;SDS011;63981;51.052;13.754;2023-02-26T03:13:36;2.97;;;1.80;;
75062;SDS011;63981;51.052;13.754;2023-02-26T03:19:03;2.58;;;1.63;;
75062;SDS011;63981;51.052;13.754;2023-02-26T03:21:56;2.28;;;2.08;;
75062;SDS011;63981;51.052;13.754;2023-02-26T03:27:30;1.92;;;1.40;;
75062;SDS011;63981;51.052;13.754;2023-02-26T03:30:05;2.33;;;1.70;;
75062;SDS011;63981;51.052;13.754;2023-02-26T03:35:41;1.80;;;1.55;;
75062;SDS011;63981;51.052;13.754;2023-02-26T03:38:13;3.42;;;1.90;;
75062;SDS011;63981;51.052;13.754;2023-02-26T03:40:56;2.00;;;1.80;;
75062;SDS011;63981;51.052;13.754;2023-02-26T03:43:32;2.88;;;2.10;;
75062;SDS011;63981;51.052;13.754;2023-02-26T03:46:11;2.97;;;1.88;;
75062;SDS011;63981;51.052;13.754;2023-02-26T03:48:40;1.73;;;1.15;;
75062;SDS011;63981;51.052;13.754;2023-02-26T03:51:09;1.88;;;1.60;;
75062;SDS011;63981;51.052;13.754;2023-02-26T03:53:57;2.75;;;1.45;;
75062;SDS011;63981;51.052;13.754;2023-02-26T03:56:50;3.22;;;2.10;;
75062;SDS011;63981;51.052;13.754;2023-02-26T03:59:48;2.90;;;1.88;;
75062;SDS011;63981;51.052;13.754;2023-02-26T04:02:35;2.55;;;1.67;;
75062;SDS011;63981;51.052;13.754;2023-02-26T04:05:20;3.22;;;2.03;;
75062;SDS011;63981;51.052;13.754;2023-02-26T04:07:49;2.33;;;1.90;;
75062;SDS011;63981;51.052;13.754;2023-02-26T04:10:26;2.38;;;2.17;;
75062;SDS011;63981;51.052;13.754;2023-02-26T04:13:08;2.35;;;1.85;;
75062;SDS011;63981;51.052;13.754;2023-02-26T04:15:34;3.13;;;1.90;;
75062;SDS011;63981;51.052;13.754;2023-02-26T04:18:00;3.25;;;2.08;;
75062;SDS011;63981;51.052;13.754;2023-02-26T04:20:26;3.47;;;1.50;;
75062;SDS011;63981;51.052;13.754;2023-02-26T04:22:53;2.10;;;1.90;;
75062;SDS011;63981;51.052;13.754;2023-02-26T04:25:21;2.22;;;1.90;;
75062;SDS011;63981;51.052;13.754;2023-02-26T04:27:49;3.42;;;1.83;;
75062;SDS011;63981;51.052;13.754;2023-02-26T04:30:15;2.10;;;1.52;;
75062;SDS011;63981;51.052;13.754;2023-02-26T04:32:40;2.30;;;2.00;;
75062;SDS011;63981;51.052;13.754;2023-02-26T04:35:09;2.63;;;1.80;;
75062;SDS011;63981;51.052;13.754;2023-02-26T04:37:34;2.13;;;1.35;;
75062;SDS011;63981;51.052;13.754;2023-02-26T04:40:00;2.90;;;1.58;;
75062;SDS011;63981;51.052;13.754;2023-02-26T04:42:26;5.13;;;1.80;;
75062;SDS011;63981;51.052;13.754;2023-02-26T04:44:53;2.28;;;1.90;;
75062;SDS011;63981;51.052;13.754;2023-02-26T04:47:18;2.20;;;1.50;;
75062;SDS011;63981;51.052;13.754;2023-02-26T04:49:45;3.67;;;1.77;;
75062;SDS011;63981;51.052;13.754;2023-02-26T04:52:11;4.32;;;1.70;;
75062;SDS011;63981;51.052;13.754;2023-02-26T04:54:38;1.90;;;1.45;;
75062;SDS011;63981;51.052;13.754;2023-02-26T04:57:05;3.03;;;1.48;;
75062;SDS011;63981;51.052;13.754;2023-02-26T04:59:31;2.53;;;1.70;;
75062;SDS011;63981;51.052;13.754;2023-02-26T05:01:57;2.78;;;1.80;;
75062;SDS011;63981;51.052;13.754;2023-02-26T05:04:24;1.75;;;1.40;;
75062;SDS011;63981;51.052;13.754;2023-02-26T05:09:19;2.28;;;1.30;;
75062;SDS011;63981;51.052;13.754;2023-02-26T05:11:45;3.13;;;1.50;;
75062;SDS011;63981;51.052;13.754;2023-02-26T05:14:13;2.80;;;1.52;;
75062;SDS011;63981;51.052;13.754;2023-02-26T05:16:42;2.40;;;1.40;;
75062;SDS011;63981;51.052;13.754;2023-02-26T05:19:08;2.88;;;1.40;;
75062;SDS011;63981;51.052;13.754;2023-02-26T05:21:33;2.83;;;1.35;;
75062;SDS011;63981;51.052;13.754;2023-02-26T05:23:59;2.70;;;1.20;;
75062;SDS011;63981;51.052;13.754;2023-02-26T05:26:25;1.40;;;1.10;;
75062;SDS011;63981;51.052;13.754;2023-02-26T05:28:51;3.10;;;1.15;;
75062;SDS011;63981;51.052;13.754;2023-02-26T05:31:18;2.17;;;1.20;;
75062;SDS011;63981;51.052;13.754;2023-02-26T05:33:44;2.65;;;1.10;;
75062;SDS011;63981;51.052;13.754;2023-02-26T05:36:09;2.45;;;1.23;;
75062;SDS011;63981;51.052;13.754;2023-02-26T05:38:35;2.63;;;1.10;;
75062;SDS011;63981;51.052;13.754;2023-02-26T05:41:01;3.92;;;1.85;;
75062;SDS011;63981;51.052;13.754;2023-02-26T05:43:28;2.65;;;1.10;;
75062;SDS011;63981;51.052;13.754;2023-02-26T05:45:54;2.33;;;1.50;;
75062;SDS011;63981;51.052;13.754;2023-02-26T05:48:20;3.40;;;1.73;;
75062;SDS011;63981;51.052;13.754;2023-02-26T05:50:49;2.10;;;1.42;;
75062;SDS011;63981;51.052;13.754;2023-02-26T05:53:15;4.95;;;2.17;;
75062;SDS011;63981;51.052;13.754;2023-02-26T05:55:41;2.75;;;1.40;;
75062;SDS011;63981;51.052;13.754;2023-02-26T05:58:07;1.58;;;1.30;;
75062;SDS011;63981;51.052;13.754;2023-02-26T06:00:33;3.10;;;1.77;;
75062;SDS011;63981;51.052;13.754;2023-02-26T06:02:58;3.50;;;1.70;;
75062;SDS011;63981;51.052;13.754;2023-02-26T06:05:24;4.38;;;1.77;;
75062;SDS011;63981;51.052;13.754;2023-02-26T06:07:50;1.98;;;1.75;;
75062;SDS011;63981;51.052;13.754;2023-02-26T06:10:16;3.05;;;1.75;;
75062;SDS011;63981;51.052;13.754;2023-02-26T06:12:41;3.13;;;1.38;;
75062;SDS011;63981;51.052;13.754;2023-02-26T06:15:08;3.70;;;1.70;;
75062;SDS011;63981;51.052;13.754;2023-02-26T06:17:35;4.22;;;2.28;;
75062;SDS011;63981;51.052;13.754;2023-02-26T06:20:02;2.22;;;1.50;;
75062;SDS011;63981;51.052;13.754;2023-02-26T06:22:28;3.17;;;1.63;;
75062;SDS011;63981;51.052;13.754;2023-02-26T06:24:55;6.70;;;2.38;;
75062;SDS011;63981;51.052;13.754;2023-02-26T06:27:20;2.97;;;1.80;;
75062;SDS011;63981;51.052;13.754;2023-02-26T06:29:46;3.63;;;1.88;;
75062;SDS011;63981;51.052;13.754;2023-02-26T06:32:12;3.92;;;1.90;;
75062;SDS011;63981;51.052;13.754;2023-02-26T06:34:38;3.10;;;1.73;;
75062;SDS011;63981;51.052;13.754;2023-02-26T06:37:03;4.05;;;2.30;;
75062;SDS011;63981;51.052;13.754;2023-02-26T06:39:29;4.05;;;2.05;;
75062;SDS011;63981;51.052;13.754;2023-02-26T06:41:55;4.38;;;1.98;;
75062;SDS011;63981;51.052;13.754;2023-02-26T06:44:21;3.10;;;1.85;;
75062;SDS011;63981;51.052;13.754;2023-02-26T06:46:47;3.05;;;1.75;;
75062;SDS011;63981;51.052;13.754;2023-02-26T06:49:13;4.18;;;2.35;;
75062;SDS011;63981;51.052;13.754;2023-02-26T06:51:39;2.55;;;1.80;;
75062;SDS011;63981;51.052;13.754;2023-02-26T06:54:04;4.15;;;1.90;;
75062;SDS011;63981;51.052;13.754;2023-02-26T06:56:30;4.13;;;1.83;;
75062;SDS011;63981;51.052;13.754;2023-02-26T06:58:56;2.13;;;1.67;;
75062;SDS011;63981;51.052;13.754;2023-02-26T07:01:22;3.15;;;1.77;;
75062;SDS011;63981;51.052;13.754;2023-02-26T07:03:48;3.85;;;1.85;;
75062;SDS011;63981;51.052;13.754;2023-02-26T07:06:14;4.20;;;1.80;;
75062;SDS011;63981;51.052;13.754;2023-02-26T07:08:41;2.33;;;1.67;;
75062;SDS011;63981;51.052;13.754;2023-02-26T07:11:06;2.92;;;1.70;;
75062;SDS011;63981;51.052;13.754;2023-02-26T07:13:37;3.30;;;1.80;;
75062;SDS011;63981;51.052;13.754;2023-02-26T07:16:03;3.70;;;1.77;;
75062;SDS011;63981;51.052;13.754;2023-02-26T07:18:35;2.83;;;1.52;;
75062;SDS011;63981;51.052;13.754;2023-02-26T07:21:02;2.72;;;1.70;;
75062;SDS011;63981;51.052;13.754;2023-02-26T07:23:29;3.58;;;1.95;;
75062;SDS011;63981;51.052;13.754;2023-02-26T07:25:55;5.55;;;1.77;;
75062;SDS011;63981;51.052;13.754;2023-02-26T07:28:21;2.63;;;1.35;;
75062;SDS011;63981;51.052;13.754;2023-02-26T07:30:48;4.43;;;1.90;;
75062;SDS011;63981;51.052;13.754;2023-02-26T07:33:14;4.60;;;1.75;;
75062;SDS011;63981;51.052;13.754;2023-02-26T07:35:40;2.63;;;1.30;;
75062;SDS011;63981;51.052;13.754;2023-02-26T07:38:06;2.70;;;1.35;;
75062;SDS011;63981;51.052;13.754;2023-02-26T07:40:32;2.75;;;1.40;;
75062;SDS011;63981;51.052;13.754;2023-02-26T07:42:58;4.18;;;1.67;;
75062;SDS011;63981;51.052;13.754;2023-02-26T07:45:24;2.60;;;1.88;;
75062;SDS011;63981;51.052;13.754;2023-02-26T07:47:50;5.28;;;1.90;;
75062;SDS011;63981;51.052;13.754;2023-02-26T07:50:17;2.25;;;1.40;;
75062;SDS011;63981;51.052;13.754;2023-02-26T07:52:44;5.00;;;1.75;;
75062;SDS011;63981;51.052;13.754;2023-02-26T07:55:11;4.32;;;1.58;;
75062;SDS011;63981;51.052;13.754;2023-02-26T07:57:37;3.75;;;1.70;;
75062;SDS011;63981;51.052;13.754;2023-02-26T08:00:03;2.72;;;1.25;;
75062;SDS011;63981;51.052;13.754;2023-02-26T08:05:03;1.63;;;1.23;;
75062;SDS011;63981;51.052;13.754;2023-02-26T08:07:29;4.47;;;1.95;;
75062;SDS011;63981;51.052;13.754;2023-02-26T08:09:55;5.82;;;1.50;;
75062;SDS011;63981;51.052;13.754;2023-02-26T08:12:21;4.13;;;1.70;;
75062;SDS011;63981;51.052;13.754;2023-02-26T08:14:47;3.78;;;1.30;;
75062;SDS011;63981;51.052;13.754;2023-02-26T08:17:12;2.13;;;1.40;;
75062;SDS011;63981;51.052;13.754;2023-02-26T08:19:38;2.13;;;1.30;;
75062;SDS011;63981;51.052;13.754;2023-02-26T08:22:05;2.67;;;1.30;;
75062;SDS011;63981;51.052;13.754;2023-02-26T08:24:32;2.03;;;1.40;;
75062;SDS011;63981;51.052;13.754;2023-02-26T08:26:57;2.08;;;1.30;;
75062;SDS011;63981;51.052;13.754;2023-02-26T08:29:23;3.40;;;1.15;;
75062;SDS011;63981;51.052;13.754;2023-02-26T08:31:49;3.67;;;1.38;;
75062;SDS011;63981;51.052;13.754;2023-02-26T08:34:16;2.95;;;1.20;;
75062;SDS011;63981;51.052;13.754;2023-02-26T08:36:42;3.13;;;1.50;;
75062;SDS011;63981;51.052;13.754;2023-02-26T08:39:08;2.40;;;1.45;;
75062;SDS011;63981;51.052;13.754;2023-02-26T08:41:34;2.33;;;1.27;;
75062;SDS011;63981;51.052;13.754;2023-02-26T08:44:00;3.00;;;1.42;;
75062;SDS011;63981;51.052;13.754;2023-02-26T08:46:27;1.92;;;1.17;;
75062;SDS011;63981;51.052;13.754;2023-02-26T08:48:53;1.70;;;1.10;;
75062;SDS011;63981;51.052;13.754;2023-02-26T08:51:19;2.45;;;1.05;;
75062;SDS011;63981;51.052;13.754;2023-02-26T08:53:46;3.47;;;1.15;;
75062;SDS011;63981;51.052;13.754;2023-02-26T08:56:14;3.78;;;1.13;;
75062;SDS011;63981;51.052;13.754;2023-02-26T08:58:40;3.03;;;1.20;;
75062;SDS011;63981;51.052;13.754;2023-02-26T09:01:06;4.97;;;0.98;;
75062;SDS011;63981;51.052;13.754;2023-02-26T09:03:31;2.28;;;1.30;;
75062;SDS011;63981;51.052;13.754;2023-02-26T09:05:57;2.30;;;1.02;;
75062;SDS011;63981;51.052;13.754;2023-02-26T09:08:23;2.42;;;1.30;;
75062;SDS011;63981;51.052;13.754;2023-02-26T09:10:48;3.25;;;1.20;;
75062;SDS011;63981;51.052;13.754;2023-02-26T09:13:14;2.08;;;0.90;;
75062;SDS011;63981;51.052;13.754;2023-02-26T09:15:41;2.40;;;1.30;;
75062;SDS011;63981;51.052;13.754;2023-02-26T09:18:07;2.80;;;0.88;;
75062;SDS011;63981;51.052;13.754;2023-02-26T09:20:40;2.45;;;0.90;;
75062;SDS011;63981;51.052;13.754;2023-02-26T09:23:07;2.03;;;1.17;;
75062;SDS011;63981;51.052;13.754;2023-02-26T09:25:33;3.35;;;1.17;;
75062;SDS011;63981;51.052;13.754;2023-02-26T09:27:58;1.98;;;0.90;;
75062;SDS011;63981;51.052;13.754;2023-02-26T09:30:24;2.90;;;0.93;;
75062;SDS011;63981;51.052;13.754;2023-02-26T09:32:50;2.25;;;1.30;;
75062;SDS011;63981;51.052;13.754;2023-02-26T09:35:15;3.78;;;1.40;;
75062;SDS011;63981;51.052;13.754;2023-02-26T09:37:41;3.42;;;1.23;;
75062;SDS011;63981;51.052;13.754;2023-02-26T09:40:07;1.80;;;0.98;;
75062;SDS011;63981;51.052;13.754;2023-02-26T09:45:38;1.65;;;0.90;;
75062;SDS011;63981;51.052;13.754;2023-02-26T09:48:07;4.47;;;1.02;;
75062;SDS011;63981;51.052;13.754;2023-02-26T09:50:41;2.03;;;0.80;;
75062;SDS011;63981;51.052;13.754;2023-02-26T09:55:42;1.85;;;0.98;;
75062;SDS011;63981;51.052;13.754;2023-02-26T10:01:30;1.67;;;0.95;;
75062;SDS011;63981;51.052;13.754;2023-02-26T10:03:54;3.83;;;0.90;;
75062;SDS011;63981;51.052;13.754;2023-02-26T10:06:32;2.03;;;0.80;;
75062;SDS011;63981;51.052;13.754;2023-02-26T10:09:14;2.83;;;0.90;;
75062;SDS011;63981;51.052;13.754;2023-02-26T10:12:21;2.92;;;0.70;;
75062;SDS011;63981;51.052;13.754;2023-02-26T10:14:51;2.53;;;0.70;;
75062;SDS011;63981;51.052;13.754;2023-02-26T10:20:26;2.30;;;0.85;;
75062;SDS011;63981;51.052;13.754;2023-02-26T10:23:00;2.58;;;0.70;;
75062;SDS011;63981;51.052;13.754;2023-02-26T10:25:41;2.28;;;0.57;;
75062;SDS011;63981;51.052;13.754;2023-02-26T10:31:08;3.53;;;1.20;;
75062;SDS011;63981;51.052;13.754;2023-02-26T10:36:24;1.67;;;0.60;;
75062;SDS011;63981;51.052;13.754;2023-02-26T10:38:57;1.48;;;1.05;;
75062;SDS011;63981;51.052;13.754;2023-02-26T10:41:29;2.67;;;0.90;;
75062;SDS011;63981;51.052;13.754;2023-02-26T10:44:08;1.40;;;0.68;;
75062;SDS011;63981;51.052;13.754;2023-02-26T10:49:45;1.67;;;0.90;;
75062;SDS011;63981;51.052;13.754;2023-02-26T10:52:26;1.52;;;0.70;;
75062;SDS011;63981;51.052;13.754;2023-02-26T10:55:38;2.40;;;0.60;;
75062;SDS011;63981;51.052;13.754;2023-02-26T11:00:24;1.90;;;0.73;;
75062;SDS011;63981;51.052;13.754;2023-02-26T11:02:50;2.97;;;0.80;;
75062;SDS011;63981;51.052;13.754;2023-02-26T11:05:23;3.17;;;1.00;;
75062;SDS011;63981;51.052;13.754;2023-02-26T11:08:05;1.50;;;0.90;;
75062;SDS011;63981;51.052;13.754;2023-02-26T11:10:49;2.83;;;0.93;;
75062;SDS011;63981;51.052;13.754;2023-02-26T11:13:20;1.67;;;0.70;;
75062;SDS011;63981;51.052;13.754;2023-02-26T11:15:50;2.95;;;1.10;;
75062;SDS011;63981;51.052;13.754;2023-02-26T11:18:19;2.35;;;0.90;;
75062;SDS011;63981;51.052;13.754;2023-02-26T11:20:55;1.80;;;0.77;;
75062;SDS011;63981;51.052;13.754;2023-02-26T11:23:23;1.77;;;0.60;;
75062;SDS011;63981;51.052;13.754;2023-02-26T11:26:00;1.38;;;0.60;;
75062;SDS011;63981;51.052;13.754;2023-02-26T11:28:31;2.17;;;0.90;;
75062;SDS011;63981;51.052;13.754;2023-02-26T11:31:04;1.83;;;0.80;;
75062;SDS011;63981;51.052;13.754;2023-02-26T11:33:37;2.00;;;0.60;;
75062;SDS011;63981;51.052;13.754;2023-02-26T11:36:07;2.10;;;0.60;;
75062;SDS011;63981;51.052;13.754;2023-02-26T11:38:35;1.20;;;0.55;;
75062;SDS011;63981;51.052;13.754;2023-02-26T11:41:02;1.88;;;0.73;;
75062;SDS011;63981;51.052;13.754;2023-02-26T11:43:47;1.75;;;0.65;;
75062;SDS011;63981;51.052;13.754;2023-02-26T11:46:22;1.65;;;0.50;;
75062;SDS011;63981;51.052;13.754;2023-02-26T11:48:49;3.80;;;1.05;;
75062;SDS011;63981;51.052;13.754;2023-02-26T11:51:21;1.77;;;0.80;;
75062;SDS011;63981;51.052;13.754;2023-02-26T11:53:52;2.90;;;0.80;;
75062;SDS011;63981;51.052;13.754;2023-02-26T11:58:56;1.60;;;0.65;;
75062;SDS011;63981;51.052;13.754;2023-02-26T12:01:27;4.55;;;0.88;;
75062;SDS011;63981;51.052;13.754;2023-02-26T12:03:56;1.67;;;0.60;;
75062;SDS011;63981;51.052;13.754;2023-02-26T12:06:25;1.35;;;0.50;;
75062;SDS011;63981;51.052;13.754;2023-02-26T12:08:51;2.53;;;0.60;;
75062;SDS011;63981;51.052;13.754;2023-02-26T12:17:51;1.45;;;0.60;;
75062;SDS011;63981;51.052;13.754;2023-02-26T12:39:43;3.80;;;0.80;;
75062;SDS011;63981;51.052;13.754;2023-02-26T12:53:10;1.83;;;0.45;;
75062;SDS011;63981;51.052;13.754;2023-02-26T13:06:21;1.58;;;0.50;;
75062;SDS011;63981;51.052;13.754;2023-02-26T13:17:44;1.80;;;0.55;;
75062;SDS011;63981;51.052;13.754;2023-02-26T13:20:18;1.73;;;1.05;;
75062;SDS011;63981;51.052;13.754;2023-02-26T13:25:22;2.38;;;0.60;;
75062;SDS011;63981;51.052;13.754;2023-02-26T13:27:48;1.90;;;0.63;;
75062;SDS011;63981;51.052;13.754;2023-02-26T13:30:18;1.88;;;0.60;;
75062;SDS011;63981;51.052;13.754;2023-02-26T13:32:48;1.92;;;0.65;;
75062;SDS011;63981;51.052;13.754;2023-02-26T13:35:20;1.95;;;0.98;;
75062;SDS011;63981;51.052;13.754;2023-02-26T13:37:52;2.80;;;0.73;;
75062;SDS011;63981;51.052;13.754;2023-02-26T13:42:50;1.60;;;0.50;;
75062;SDS011;63981;51.052;13.754;2023-02-26T13:51:47;1.65;;;0.30;;
75062;SDS011;63981;51.052;13.754;2023-02-26T13:53:53;1.40;;;0.40;;
75062;SDS011;63981;51.052;13.754;2023-02-26T14:01:57;1.63;;;0.40;;
75062;SDS011;63981;51.052;13.754;2023-02-26T14:04:49;1.27;;;0.32;;
75062;SDS011;63981;51.052;13.754;2023-02-26T14:07:44;1.70;;;0.60;;
75062;SDS011;63981;51.052;13.754;2023-02-26T14:10:14;1.95;;;0.55;;
75062;SDS011;63981;51.052;13.754;2023-02-26T14:12:49;2.38;;;0.30;;
75062;SDS011;63981;51.052;13.754;2023-02-26T14:15:38;0.73;;;0.30;;
75062;SDS011;63981;51.052;13.754;2023-02-26T14:23:49;2.13;;;0.50;;
75062;SDS011;63981;51.052;13.754;2023-02-26T14:26:20;1.80;;;0.75;;
75062;SDS011;63981;51.052;13.754;2023-02-26T14:28:57;0.88;;;0.43;;
75062;SDS011;63981;51.052;13.754;2023-02-26T14:34:48;2.40;;;0.52;;
75062;SDS011;63981;51.052;13.754;2023-02-26T14:37:18;1.35;;;0.55;;
75062;SDS011;63981;51.052;13.754;2023-02-26T14:39:49;2.80;;;1.25;;
75062;SDS011;63981;51.052;13.754;2023-02-26T14:42:33;2.15;;;0.47;;
75062;SDS011;63981;51.052;13.754;2023-02-26T14:45:07;2.00;;;0.40;;
75062;SDS011;63981;51.052;13.754;2023-02-26T14:47:33;2.45;;;0.50;;
75062;SDS011;63981;51.052;13.754;2023-02-26T14:50:01;2.17;;;0.63;;
75062;SDS011;63981;51.052;13.754;2023-02-26T14:52:32;1.95;;;0.60;;
75062;SDS011;63981;51.052;13.754;2023-02-26T15:01:02;1.95;;;0.50;;
75062;SDS011;63981;51.052;13.754;2023-02-26T15:03:39;2.13;;;0.50;;
75062;SDS011;63981;51.052;13.754;2023-02-26T15:06:19;1.90;;;0.40;;
75062;SDS011;63981;51.052;13.754;2023-02-26T15:11:55;1.92;;;0.73;;
75062;SDS011;63981;51.052;13.754;2023-02-26T15:14:38;1.10;;;0.35;;
75062;SDS011;63981;51.052;13.754;2023-02-26T15:20:17;2.10;;;0.30;;
75062;SDS011;63981;51.052;13.754;2023-02-26T15:25:42;1.50;;;0.50;;
75062;SDS011;63981;51.052;13.754;2023-02-26T15:28:33;1.70;;;0.60;;
75062;SDS011;63981;51.052;13.754;2023-02-26T15:31:03;2.60;;;0.70;;
75062;SDS011;63981;51.052;13.754;2023-02-26T15:33:31;2.63;;;0.80;;
75062;SDS011;63981;51.052;13.754;2023-02-26T15:35:58;1.10;;;0.63;;
75062;SDS011;63981;51.052;13.754;2023-02-26T15:38:39;1.02;;;0.50;;
75062;SDS011;63981;51.052;13.754;2023-02-26T15:41:06;2.15;;;0.50;;
75062;SDS011;63981;51.052;13.754;2023-02-26T15:43:32;2.35;;;0.50;;
75062;SDS011;63981;51.052;13.754;2023-02-26T15:45:58;1.27;;;0.60;;
75062;SDS011;63981;51.052;13.754;2023-02-26T15:51:03;2.47;;;1.00;;
75062;SDS011;63981;51.052;13.754;2023-02-26T15:53:36;1.48;;;0.60;;
75062;SDS011;63981;51.052;13.754;2023-02-26T15:56:09;2.92;;;0.77;;
75062;SDS011;63981;51.052;13.754;2023-02-26T15:59:29;1.83;;;0.90;;
75062;SDS011;63981;51.052;13.754;2023-02-26T16:01:37;2.53;;;1.17;;
75062;SDS011;63981;51.052;13.754;2023-02-26T16:04:06;1.88;;;0.80;;
75062;SDS011;63981;51.052;13.754;2023-02-26T16:06:38;2.22;;;1.02;;
75062;SDS011;63981;51.052;13.754;2023-02-26T16:09:13;2.65;;;1.20;;
75062;SDS011;63981;51.052;13.754;2023-02-26T16:11:43;2.08;;;1.08;;
75062;SDS011;63981;51.052;13.754;2023-02-26T16:14:16;2.55;;;0.82;;
75062;SDS011;63981;51.052;13.754;2023-02-26T16:16:47;4.55;;;0.98;;
75062;SDS011;63981;51.052;13.754;2023-02-26T16:19:16;4.80;;;1.15;;
75062;SDS011;63981;51.052;13.754;2023-02-26T16:21:45;1.73;;;1.15;;
75062;SDS011;63981;51.052;13.754;2023-02-26T16:24:14;3.20;;;1.20;;
75062;SDS011;63981;51.052;13.754;2023-02-26T16:26:44;3.38;;;1.33;;
75062;SDS011;63981;51.052;13.754;2023-02-26T16:29:14;2.83;;;1.30;;
75062;SDS011;63981;51.052;13.754;2023-02-26T16:31:49;4.68;;;1.15;;
75062;SDS011;63981;51.052;13.754;2023-02-26T16:34:33;3.42;;;1.45;;
75062;SDS011;63981;51.052;13.754;2023-02-26T16:40:34;2.70;;;1.40;;
75062;SDS011;63981;51.052;13.754;2023-02-26T16:45:41;4.00;;;1.55;;
75062;SDS011;63981;51.052;13.754;2023-02-26T16:48:30;3.45;;;1.73;;
75062;SDS011;63981;51.052;13.754;2023-02-26T16:51:05;3.13;;;1.60;;
75062;SDS011;63981;51.052;13.754;2023-02-26T16:53:35;3.20;;;1.40;;
75062;SDS011;63981;51.052;13.754;2023-02-26T16:56:08;2.80;;;1.60;;
75062;SDS011;63981;51.052;13.754;2023-02-26T16:58:42;4.15;;;1.95;;
75062;SDS011;63981;51.052;13.754;2023-02-26T17:01:12;3.45;;;1.77;;
75062;SDS011;63981;51.052;13.754;2023-02-26T17:03:41;3.08;;;1.70;;
75062;SDS011;63981;51.052;13.754;2023-02-26T17:06:15;2.50;;;1.33;;
75062;SDS011;63981;51.052;13.754;2023-02-26T17:08:48;3.13;;;1.73;;
75062;SDS011;63981;51.052;13.754;2023-02-26T17:11:17;4.18;;;1.30;;
75062;SDS011;63981;51.052;13.754;2023-02-26T17:13:56;3.35;;;1.17;;
75062;SDS011;63981;51.052;13.754;2023-02-26T17:16:37;4.13;;;1.60;;
75062;SDS011;63981;51.052;13.754;2023-02-26T17:19:02;2.58;;;1.20;;
75062;SDS011;63981;51.052;13.754;2023-02-26T17:21:29;2.88;;;0.90;;
75062;SDS011;63981;51.052;13.754;2023-02-26T17:23:55;2.72;;;1.42;;
75062;SDS011;63981;51.052;13.754;2023-02-26T17:26:22;1.92;;;1.10;;
75062;SDS011;63981;51.052;13.754;2023-02-26T17:28:48;2.42;;;0.98;;
75062;SDS011;63981;51.052;13.754;2023-02-26T17:31:14;2.17;;;1.08;;
75062;SDS011;63981;51.052;13.754;2023-02-26T17:33:41;2.03;;;1.48;;
75062;SDS011;63981;51.052;13.754;2023-02-26T17:36:12;2.22;;;1.17;;
75062;SDS011;63981;51.052;13.754;2023-02-26T17:38:39;4.28;;;1.30;;
75062;SDS011;63981;51.052;13.754;2023-02-26T17:41:13;4.82;;;1.25;;
75062;SDS011;63981;51.052;13.754;2023-02-26T17:43:40;3.10;;;1.10;;
75062;SDS011;63981;51.052;13.754;2023-02-26T17:46:07;1.50;;;0.98;;